Time,TemperatureF,DewpointF,PressureIn,WindDirection,WindDirectionDegrees,WindSpeedMPH,WindSpeedGustMPH,Humidity,HourlyPrecipIn,Conditions,Clouds,dailyrainin,SoftwareType,DateUTC
2013-02-23 00:04:00,21.3,12.7,29.61,North,355,2.0,3.0,69,0.00,,,0.00,WeatherDisplay:10.34,2013-02-23 07:04:00,
2013-02-23 00:09:00,21.4,12.5,29.61,West,277,4.0,0.0,68,0.00,,,0.00,WeatherDisplay:10.34,2013-02-23 07:09:00,
2013-02-23 00:14:00,21.3,12.7,29.61,NNW,332,4.0,4.0,69,0.00,,,0.00,WeatherDisplay:10.34,2013-02-23 07:14:00,
2013-02-23 00:19:00,21.3,12.7,29.61,WNW,292,3.0,3.0,69,0.00,,,0.00,WeatherDisplay:10.34,2013-02-23 07:19:00,
2013-02-23 00:24:00,21.3,12.7,29.60,WNW,293,2.0,2.0,69,0.00,,,0.00,WeatherDisplay:10.34,2013-02-23 07:24:00,
2013-02-23 00:29:00,21.3,12.7,29.60,WNW,293,0.0,1.0,69,0.00,,,0.00,WeatherDisplay:10.34,2013-02-23 07:29:00,
2013-02-23 00:34:00,21.2,12.9,29.60,WNW,287,7.0,8.0,70,0.00,,,0.00,WeatherDisplay:10.34,2013-02-23 07:34:00,
2013-02-23 00:39:00,21.2,15.1,29.60,WNW,283,2.0,2.0,77,0.00,,,0.00,WeatherDisplay:10.34,2013-02-23 07:39:00,
2013-02-23 00:44:00,21.2,12.9,29.60,West,280,6.0,7.0,70,0.00,,,0.00,WeatherDisplay:10.34,2013-02-23 07:44:00,
2013-02-23 00:49:00,21.2,12.9,29.60,WNW,289,0.0,1.0,70,0.00,,,0.00,WeatherDisplay:10.34,2013-02-23 07:49:00,
2013-02-23 00:54:00,21.3,13.4,29.59,NNW,345,2.0,3.0,71,0.00,,,0.00,WeatherDisplay:10.34,2013-02-23 07:54:00,
2013-02-23 00:59:00,21.3,13.4,29.60,WNW,291,2.0,3.0,71,0.00,,,0.00,WeatherDisplay:10.34,2013-02-23 07:59:00,
2013-02-23 01:04:00,21.3,13.4,29.60,NW,315,3.0,3.0,71,0.00,,,0.00,WeatherDisplay:10.34,2013-02-23 08:04:00,
2013-02-23 01:09:00,21.4,13.5,29.60,West,277,4.0,5.0,71,0.00,,,0.00,WeatherDisplay:10.34,2013-02-23 08:09:00,
2013-02-23 01:14:00,21.5,13.5,29.61,West,277,1.0,1.0,71,0.00,,,0.00,WeatherDisplay:10.34,2013-02-23 08:14:00,
2013-02-23 01:19:00,21.5,13.5,29.61,West,277,0.0,0.0,71,0.00,,,0.00,WeatherDisplay:10.34,2013-02-23 08:19:00,
2013-02-23 01:24:00,21.5,13.5,29.61,West,277,0.0,0.0,71,0.00,,,0.00,WeatherDisplay:10.34,2013-02-23 08:24:00,
2013-02-23 01:29:00,21.6,13.6,29.61,West,277,3.0,3.0,71,0.00,,,0.00,WeatherDisplay:10.34,2013-02-23 08:29:00,
2013-02-23 01:34:00,21.6,13.6,29.60,WSW,257,3.0,3.0,71,0.00,,,0.00,WeatherDisplay:10.34,2013-02-23 08:34:00,
2013-02-23 01:39:00,21.7,13.7,29.60,NW,304,3.0,3.0,71,0.00,,,0.00,WeatherDisplay:10.34,2013-02-23 08:39:00,
2013-02-23 01:44:00,21.7,13.7,29.60,WNW,303,0.0,0.0,71,0.00,,,0.00,WeatherDisplay:10.34,2013-02-23 08:44:00,
2013-02-23 01:49:00,21.7,13.7,29.59,NW,304,2.0,2.0,71,0.00,,,0.00,WeatherDisplay:10.34,2013-02-23 08:49:00,
2013-02-23 01:54:00,21.6,13.6,29.59,WNW,295,7.0,8.0,71,0.00,,,0.00,WeatherDisplay:10.34,2013-02-23 08:54:00,
2013-02-23 01:59:00,21.5,13.5,29.59,West,263,0.0,0.0,71,0.00,,,0.00,WeatherDisplay:10.34,2013-02-23 08:59:00,
2013-02-23 02:04:00,21.4,13.5,29.59,West,281,0.0,0.0,71,0.00,,,0.00,WeatherDisplay:10.34,2013-02-23 09:04:00,
2013-02-23 02:09:00,21.3,13.4,29.59,WSW,258,0.0,2.0,71,0.00,,,0.00,WeatherDisplay:10.34,2013-02-23 09:09:00,
2013-02-23 02:14:00,21.0,12.4,29.58,East,96,2.0,2.0,69,0.00,,,0.00,WeatherDisplay:10.34,2013-02-23 09:14:00,
2013-02-23 02:19:00,20.6,12.0,29.58,WSW,254,3.0,3.0,69,0.00,,,0.00,WeatherDisplay:10.34,2013-02-23 09:19:00,
2013-02-23 02:24:00,20.4,12.8,29.58,WNW,302,4.0,5.0,72,0.00,,,0.00,WeatherDisplay:10.34,2013-02-23 09:24:00,
2013-02-23 02:29:00,20.7,13.1,29.58,WNW,294,1.0,1.0,72,0.00,,,0.00,WeatherDisplay:10.34,2013-02-23 09:29:00,
2013-02-23 02:34:00,20.7,13.1,29.57,WNW,294,0.0,0.0,72,0.00,,,0.00,WeatherDisplay:10.34,2013-02-23 09:34:00,
2013-02-23 02:39:00,20.9,13.3,29.57,ENE,57,3.0,3.0,72,0.00,,,0.00,WeatherDisplay:10.34,2013-02-23 09:39:00,
2013-02-23 02:44:00,20.9,13.3,29.56,East,96,1.0,1.0,72,0.00,,,0.00,WeatherDisplay:10.34,2013-02-23 09:44:00,
2013-02-23 02:49:00,20.8,13.2,29.55,SW,215,2.0,2.0,72,0.00,,,0.00,WeatherDisplay:10.34,2013-02-23 09:49:00,
2013-02-23 02:54:00,20.7,12.8,29.55,South,173,0.0,1.0,71,0.00,,,0.00,WeatherDisplay:10.34,2013-02-23 09:54:00,
2013-02-23 02:59:00,20.7,13.1,29.55,SSE,167,4.0,4.0,72,0.00,,,0.00,WeatherDisplay:10.34,2013-02-23 09:59:00,
2013-02-23 03:04:00,20.6,13.0,29.55,NNW,329,4.0,5.0,72,0.00,,,0.00,WeatherDisplay:10.34,2013-02-23 10:04:00,
2013-02-23 03:10:00,20.7,12.8,29.55,North,354,6.0,8.0,71,0.00,CLR,CLR,0.00,WeatherDisplay:10.34,2013-02-23 10:10:00,
2013-02-23 03:15:00,20.8,12.9,29.56,WNW,290,3.0,5.0,71,0.00,,,0.00,WeatherDisplay:10.34,2013-02-23 10:15:00,
2013-02-23 03:20:00,20.9,13.3,29.56,WNW,290,1.0,1.0,72,0.00,,,0.00,WeatherDisplay:10.34,2013-02-23 10:20:00,
2013-02-23 03:25:00,21.2,13.6,29.56,WNW,290,3.0,3.0,72,0.00,,,0.00,WeatherDisplay:10.34,2013-02-23 10:25:00,
2013-02-23 03:30:00,21.4,13.5,29.56,NNW,336,3.0,0.0,71,0.00,,,0.00,WeatherDisplay:10.34,2013-02-23 10:30:00,
2013-02-23 03:35:00,21.4,13.5,29.55,NNW,336,0.0,0.0,71,0.00,,,0.00,WeatherDisplay:10.34,2013-02-23 10:35:00,
2013-02-23 03:40:00,21.5,13.5,29.55,NNW,336,0.0,0.0,71,0.00,,,0.00,WeatherDisplay:10.34,2013-02-23 10:40:00,
2013-02-23 03:45:00,21.5,13.5,29.55,NNW,336,1.0,1.0,71,0.00,,,0.00,WeatherDisplay:10.34,2013-02-23 10:45:00,
2013-02-23 03:50:00,21.6,13.6,29.55,WNW,294,0.0,0.0,71,0.00,,,0.00,WeatherDisplay:10.34,2013-02-23 10:50:00,
2013-02-23 03:55:00,21.7,14.1,29.56,WNW,294,1.0,3.0,72,0.00,,,0.00,WeatherDisplay:10.34,2013-02-23 10:55:00,
2013-02-23 04:00:00,21.8,14.2,29.56,WNW,300,2.0,2.0,72,0.00,,,0.00,WeatherDisplay:10.34,2013-02-23 11:00:00,
2013-02-23 04:05:00,22.0,14.3,29.56,NNW,341,6.0,6.0,72,0.00,,,0.00,WeatherDisplay:10.34,2013-02-23 11:05:00,
2013-02-23 04:10:00,22.2,14.2,29.56,WNW,297,4.0,0.0,71,0.00,,,0.00,WeatherDisplay:10.34,2013-02-23 11:10:00,
2013-02-23 04:15:00,22.5,14.5,29.56,WNW,296,3.0,5.0,71,0.00,,,0.00,WeatherDisplay:10.34,2013-02-23 11:15:00,
2013-02-23 04:20:00,22.8,14.8,29.56,WNW,297,2.0,2.0,71,0.00,,,0.00,WeatherDisplay:10.34,2013-02-23 11:20:00,
2013-02-23 04:25:00,23.0,16.6,29.56,NNW,327,2.0,2.0,76,0.00,,,0.00,WeatherDisplay:10.34,2013-02-23 11:25:00,
2013-02-23 04:30:00,23.1,14.8,29.55,WNW,288,2.0,2.0,70,0.00,,,0.00,WeatherDisplay:10.34,2013-02-23 11:30:00,
2013-02-23 04:35:00,23.3,15.0,29.55,NNW,331,2.0,2.0,70,0.00,,,0.00,WeatherDisplay:10.34,2013-02-23 11:35:00,
2013-02-23 04:40:00,23.4,14.7,29.55,NNW,331,5.0,5.0,69,0.00,,,0.00,WeatherDisplay:10.34,2013-02-23 11:40:00,
2013-02-23 04:45:00,23.4,14.7,29.55,NNW,331,6.0,7.0,69,0.00,,,0.00,WeatherDisplay:10.34,2013-02-23 11:45:00,
2013-02-23 04:50:00,23.5,14.8,29.54,NW,323,2.0,2.0,69,0.00,,,0.00,WeatherDisplay:10.34,2013-02-23 11:50:00,
2013-02-23 04:55:00,23.5,14.8,29.55,NNW,334,4.0,5.0,69,0.00,,,0.00,WeatherDisplay:10.34,2013-02-23 11:55:00,
2013-02-23 05:00:00,23.6,14.9,29.55,NNW,338,2.0,2.0,69,0.00,,,0.00,WeatherDisplay:10.34,2013-02-23 12:00:00,
2013-02-23 05:05:00,23.8,15.1,29.54,North,355,7.0,7.0,69,0.00,,,0.00,WeatherDisplay:10.34,2013-02-23 12:05:00,
2013-02-23 05:10:00,24.0,15.0,29.54,NNE,27,1.0,0.0,68,0.00,,,0.00,WeatherDisplay:10.34,2013-02-23 12:10:00,
2013-02-23 05:15:00,24.1,15.1,29.54,NW,324,2.0,5.0,68,0.00,,,0.00,WeatherDisplay:10.34,2013-02-23 12:15:00,
2013-02-23 05:20:00,24.4,15.3,29.54,East,97,3.0,3.0,68,0.00,,,0.00,WeatherDisplay:10.34,2013-02-23 12:20:00,
2013-02-23 05:25:00,24.8,15.4,29.54,NNW,330,3.0,3.0,67,0.00,,,0.00,WeatherDisplay:10.34,2013-02-23 12:25:00,
2013-02-23 05:30:00,25.2,17.4,29.54,NW,322,1.0,0.0,72,0.00,,,0.00,WeatherDisplay:10.34,2013-02-23 12:30:00,
2013-02-23 05:35:00,25.3,15.5,29.54,NW,322,1.0,2.0,66,0.00,,,0.00,WeatherDisplay:10.34,2013-02-23 12:35:00,
2013-02-23 05:40:00,25.5,15.7,29.54,NNW,341,7.0,0.0,66,0.00,,,0.00,WeatherDisplay:10.34,2013-02-23 12:40:00,
2013-02-23 05:45:00,25.6,15.5,29.53,NNW,346,7.0,7.0,65,0.00,,,0.00,WeatherDisplay:10.34,2013-02-23 12:45:00,
2013-02-23 05:50:00,25.6,15.8,29.53,NNE,23,8.0,0.0,66,0.00,,,0.00,WeatherDisplay:10.34,2013-02-23 12:50:00,
2013-02-23 05:55:00,25.5,15.7,29.53,North,350,4.0,4.0,66,0.00,,,0.00,WeatherDisplay:10.34,2013-02-23 12:55:00,
2013-02-23 06:00:00,25.1,15.3,29.53,North,350,10.0,10.0,66,0.00,,,0.00,WeatherDisplay:10.34,2013-02-23 13:00:00,
2013-02-23 06:05:00,24.6,15.2,29.54,NNW,344,4.0,5.0,67,0.00,,,0.00,WeatherDisplay:10.34,2013-02-23 13:05:00,
2013-02-23 06:10:00,24.2,14.8,29.53,North,355,12.0,12.0,67,0.00,,,0.00,WeatherDisplay:10.34,2013-02-23 13:10:00,
2013-02-23 06:15:00,23.8,14.4,29.53,NNE,27,9.0,10.0,67,0.00,,,0.00,WeatherDisplay:10.34,2013-02-23 13:15:00,
2013-02-23 06:20:00,23.5,14.1,29.54,North,355,11.0,12.0,67,0.00,,,0.00,WeatherDisplay:10.34,2013-02-23 13:20:00,
2013-02-23 06:25:00,23.3,14.3,29.54,North,355,10.0,10.0,68,0.00,,,0.00,WeatherDisplay:10.34,2013-02-23 13:25:00,
2013-02-23 06:30:00,23.2,14.2,29.54,North,350,9.0,10.0,68,0.00,,,0.00,WeatherDisplay:10.34,2013-02-23 13:30:00,
2013-02-23 06:35:00,23.1,14.1,29.54,NNW,329,9.0,10.0,68,0.00,,,0.00,WeatherDisplay:10.34,2013-02-23 13:35:00,
2013-02-23 06:40:00,23.0,14.0,29.54,North,360,9.0,9.0,68,0.00,,,0.00,WeatherDisplay:10.34,2013-02-23 13:40:00,
2013-02-23 06:45:00,22.9,14.2,29.54,NNE,21,7.0,7.0,69,0.00,,,0.00,WeatherDisplay:10.34,2013-02-23 13:45:00,
2013-02-23 06:50:00,22.8,14.1,29.54,North,355,10.0,10.0,69,0.00,,,0.00,WeatherDisplay:10.34,2013-02-23 13:50:00,
2013-02-23 06:55:00,22.6,14.3,29.54,NNW,347,10.0,10.0,70,0.00,,,0.00,WeatherDisplay:10.34,2013-02-23 13:55:00,
2013-02-23 07:00:00,22.5,14.2,29.54,NNW,348,10.0,10.0,70,0.00,OVC,OVC,0.00,WeatherDisplay:10.34,2013-02-23 14:00:00,
2013-02-23 07:05:00,22.4,14.1,29.54,North,360,7.0,8.0,70,0.00,OVC,OVC,0.00,WeatherDisplay:10.34,2013-02-23 14:05:00,
2013-02-23 07:10:00,22.4,14.1,29.56,NNE,12,10.0,10.0,70,0.00,OVC,OVC,0.00,WeatherDisplay:10.34,2013-02-23 14:10:00,
2013-02-23 07:15:00,22.4,14.4,29.56,North,360,9.0,9.0,71,0.00,SCT,SCT,0.00,WeatherDisplay:10.34,2013-02-23 14:15:00,
2013-02-23 07:20:00,22.4,14.4,29.56,NNW,340,8.0,8.0,71,0.00,BKN,BKN,0.00,WeatherDisplay:10.34,2013-02-23 14:20:00,
2013-02-23 07:25:00,22.6,14.6,29.56,NNE,32,7.0,9.0,71,0.00,BKN,BKN,0.00,WeatherDisplay:10.34,2013-02-23 14:25:00,
2013-02-23 07:30:00,22.6,14.6,29.56,North,355,4.0,7.0,71,0.00,BKN,BKN,0.00,WeatherDisplay:10.34,2013-02-23 14:30:00,
2013-02-23 07:35:00,22.8,14.5,29.56,North,5,5.0,7.0,70,0.00,BKN,BKN,0.00,WeatherDisplay:10.34,2013-02-23 14:35:00,
2013-02-23 07:40:00,22.9,14.6,29.55,North,355,8.0,8.0,70,0.00,BKN,BKN,0.00,WeatherDisplay:10.34,2013-02-23 14:40:00,
2013-02-23 07:45:00,23.0,14.7,29.55,NE,36,7.0,10.0,70,0.00,BKN,BKN,0.00,WeatherDisplay:10.34,2013-02-23 14:45:00,
2013-02-23 07:50:00,23.1,14.8,29.55,NNW,327,3.0,3.0,70,0.00,BKN,BKN,0.00,WeatherDisplay:10.34,2013-02-23 14:50:00,
2013-02-23 07:55:00,23.2,14.5,29.55,NNE,29,7.0,8.0,69,0.00,BKN,BKN,0.00,WeatherDisplay:10.34,2013-02-23 14:55:00,
2013-02-23 08:00:00,23.3,15.0,29.55,NNW,331,7.0,8.0,70,0.00,BKN,BKN,0.00,WeatherDisplay:10.34,2013-02-23 15:00:00,
2013-02-23 08:05:00,23.5,14.8,29.55,North,360,9.0,9.0,69,0.00,BKN,BKN,0.00,WeatherDisplay:10.34,2013-02-23 15:05:00,
2013-02-23 08:10:00,23.6,14.9,29.55,NNE,17,4.0,5.0,69,0.00,BKN,BKN,0.00,WeatherDisplay:10.34,2013-02-23 15:10:00,
2013-02-23 08:15:00,23.8,14.8,29.55,NNE,27,2.0,2.0,68,0.00,BKN,BKN,0.00,WeatherDisplay:10.34,2013-02-23 15:15:00,
2013-02-23 08:20:00,24.0,15.0,29.55,NE,38,1.0,5.0,68,0.00,BKN,BKN,0.00,WeatherDisplay:10.34,2013-02-23 15:20:00,
2013-02-23 08:26:00,24.2,15.2,29.55,NE,49,9.0,9.0,68,0.00,OVC,OVC,0.00,WeatherDisplay:10.34,2013-02-23 15:26:00,
2013-02-23 08:31:00,24.4,15.0,29.55,ENE,78,8.0,9.0,67,0.00,OVC,OVC,0.00,WeatherDisplay:10.34,2013-02-23 15:31:00,
2013-02-23 08:36:00,24.5,15.1,29.55,NE,42,5.0,5.0,67,0.00,OVC,OVC,0.00,WeatherDisplay:10.34,2013-02-23 15:36:00,
2013-02-23 08:41:00,24.6,15.2,29.55,NNE,26,4.0,7.0,67,0.00,OVC,OVC,0.00,WeatherDisplay:10.34,2013-02-23 15:41:00,
2013-02-23 08:46:00,24.8,15.0,29.55,NNE,33,2.0,3.0,66,0.00,OVC,OVC,0.00,WeatherDisplay:10.34,2013-02-23 15:46:00,
2013-02-23 08:51:00,24.9,15.1,29.55,NNE,25,2.0,2.0,66,0.00,OVC,OVC,0.00,WeatherDisplay:10.34,2013-02-23 15:51:00,
2013-02-23 08:56:00,25.1,15.3,29.55,North,351,1.0,3.0,66,0.00,OVC,OVC,0.00,WeatherDisplay:10.34,2013-02-23 15:56:00,
2013-02-23 09:01:00,25.4,15.3,29.57,North,355,2.0,2.0,65,0.00,OVC,OVC,0.00,WeatherDisplay:10.34,2013-02-23 16:01:00,
2013-02-23 09:06:00,25.6,15.5,29.57,NE,42,4.0,4.0,65,0.00,OVC,OVC,0.00,WeatherDisplay:10.34,2013-02-23 16:06:00,
2013-02-23 09:11:00,25.7,15.2,29.57,North,355,5.0,7.0,64,0.00,OVC,OVC,0.00,WeatherDisplay:10.34,2013-02-23 16:11:00,
2013-02-23 09:16:00,26.0,15.5,29.57,North,355,1.0,1.0,64,0.00,OVC,OVC,0.00,WeatherDisplay:10.34,2013-02-23 16:16:00,
2013-02-23 09:21:00,26.2,15.7,29.57,NNE,28,4.0,5.0,64,0.00,OVC,OVC,0.00,WeatherDisplay:10.34,2013-02-23 16:21:00,
2013-02-23 09:26:00,26.3,15.8,29.57,NNE,25,7.0,9.0,64,0.00,OVC,OVC,0.00,WeatherDisplay:10.34,2013-02-23 16:26:00,
2013-02-23 09:31:00,26.5,16.0,29.56,NNE,32,4.0,5.0,64,0.00,OVC,OVC,0.00,WeatherDisplay:10.34,2013-02-23 16:31:00,
2013-02-23 09:36:00,26.7,15.8,29.56,NE,36,2.0,2.0,63,0.00,OVC,OVC,0.00,WeatherDisplay:10.34,2013-02-23 16:36:00,
2013-02-23 09:41:00,26.8,15.9,29.57,West,259,3.0,5.0,63,0.00,OVC,OVC,0.00,WeatherDisplay:10.34,2013-02-23 16:41:00,
2013-02-23 09:46:00,27.0,16.1,29.57,West,263,1.0,2.0,63,0.00,OVC,OVC,0.00,WeatherDisplay:10.34,2013-02-23 16:46:00,
2013-02-23 09:51:00,27.2,15.9,29.57,NE,55,0.0,1.0,62,0.00,OVC,OVC,0.00,WeatherDisplay:10.34,2013-02-23 16:51:00,
2013-02-23 09:56:00,27.4,16.1,29.57,NE,55,6.0,7.0,62,0.00,OVC,OVC,0.00,WeatherDisplay:10.34,2013-02-23 16:56:00,
2013-02-23 10:01:00,27.5,16.2,29.57,NNE,28,0.0,0.0,62,0.00,OVC,OVC,0.00,WeatherDisplay:10.34,2013-02-23 17:01:00,
2013-02-23 10:06:00,27.7,16.4,29.57,NNW,334,5.0,5.0,62,0.00,OVC,OVC,0.00,WeatherDisplay:10.34,2013-02-23 17:06:00,
2013-02-23 10:11:00,27.8,16.5,29.57,NNW,348,1.0,1.0,62,0.00,OVC,OVC,0.00,WeatherDisplay:10.34,2013-02-23 17:11:00,
2013-02-23 10:16:00,28.0,16.6,29.57,NNW,346,4.0,5.0,62,0.00,OVC,OVC,0.00,WeatherDisplay:10.34,2013-02-23 17:16:00,
2013-02-23 10:21:00,28.1,16.4,29.57,NNW,341,6.0,8.0,61,0.00,OVC,OVC,0.00,WeatherDisplay:10.34,2013-02-23 17:21:00,
2013-02-23 10:26:00,28.2,16.5,29.57,NNW,341,4.0,4.0,61,0.00,OVC,OVC,0.00,WeatherDisplay:10.34,2013-02-23 17:26:00,
2013-02-23 10:31:00,28.3,16.6,29.58,NW,308,3.0,3.0,61,0.00,OVC,OVC,0.00,WeatherDisplay:10.34,2013-02-23 17:31:00,
2013-02-23 10:36:00,28.5,16.7,29.58,West,269,4.0,4.0,61,0.00,OVC,OVC,0.00,WeatherDisplay:10.34,2013-02-23 17:36:00,
2013-02-23 10:41:00,28.6,16.8,29.58,WSW,254,0.0,1.0,61,0.00,OVC,OVC,0.00,WeatherDisplay:10.34,2013-02-23 17:41:00,
2013-02-23 10:46:00,28.7,16.6,29.58,West,265,0.0,1.0,60,0.00,OVC,OVC,0.00,WeatherDisplay:10.34,2013-02-23 17:46:00,
2013-02-23 10:51:00,28.9,16.7,29.58,NE,41,3.0,3.0,60,0.00,OVC,OVC,0.00,WeatherDisplay:10.34,2013-02-23 17:51:00,
2013-02-23 10:56:00,29.0,16.4,29.58,ENE,60,5.0,9.0,59,0.00,OVC,OVC,0.00,WeatherDisplay:10.34,2013-02-23 17:56:00,
2013-02-23 11:01:00,29.0,16.8,29.58,North,10,4.0,7.0,60,0.00,OVC,OVC,0.00,WeatherDisplay:10.34,2013-02-23 18:01:00,
2013-02-23 11:06:00,29.0,16.8,29.58,NE,36,7.0,8.0,60,0.00,OVC,OVC,0.00,WeatherDisplay:10.34,2013-02-23 18:06:00,
2013-02-23 11:11:00,29.0,16.8,29.57,North,360,4.0,5.0,60,0.00,OVC,OVC,0.00,WeatherDisplay:10.34,2013-02-23 18:11:00,
2013-02-23 11:16:00,29.0,16.8,29.57,NW,326,4.0,4.0,60,0.00,OVC,OVC,0.00,WeatherDisplay:10.34,2013-02-23 18:16:00,
2013-02-23 11:21:00,29.1,16.9,29.58,NW,326,1.0,1.0,60,0.00,OVC,OVC,0.00,WeatherDisplay:10.34,2013-02-23 18:21:00,
2013-02-23 11:26:00,29.3,16.7,29.58,NNE,29,3.0,3.0,59,0.00,OVC,OVC,0.00,WeatherDisplay:10.34,2013-02-23 18:26:00,
2013-02-23 11:31:00,29.5,17.3,29.58,NE,53,3.0,3.0,60,0.00,OVC,OVC,0.00,WeatherDisplay:10.34,2013-02-23 18:31:00,
2013-02-23 11:36:00,29.6,17.0,29.58,North,5,2.0,2.0,59,0.00,OVC,OVC,0.00,WeatherDisplay:10.34,2013-02-23 18:36:00,
2013-02-23 11:41:00,29.8,17.2,29.58,NE,36,3.0,3.0,59,0.00,OVC,OVC,0.00,WeatherDisplay:10.34,2013-02-23 18:41:00,
2013-02-23 11:46:00,30.0,17.0,29.58,NNE,24,2.0,2.0,58,0.00,OVC,OVC,0.00,WeatherDisplay:10.34,2013-02-23 18:46:00,
2013-02-23 11:51:00,30.4,17.4,29.58,NE,44,3.0,3.0,58,0.00,BKN,BKN,0.00,WeatherDisplay:10.34,2013-02-23 18:51:00,
2013-02-23 11:56:00,30.7,17.7,29.58,North,360,4.0,7.0,58,0.00,BKN,BKN,0.00,WeatherDisplay:10.34,2013-02-23 18:56:00,
2013-02-23 12:01:00,31.4,17.9,29.58,East,87,5.0,8.0,57,0.00,SCT,SCT,0.00,WeatherDisplay:10.34,2013-02-23 19:01:00,
2013-02-23 12:06:00,31.9,18.4,29.58,NE,46,2.0,5.0,57,0.00,FEW,FEW,0.00,WeatherDisplay:10.34,2013-02-23 19:06:00,
2013-02-23 12:11:00,32.8,18.4,29.58,NE,39,4.0,4.0,55,0.00,CLR,CLR,0.00,WeatherDisplay:10.34,2013-02-23 19:11:00,
2013-02-23 12:16:00,33.5,18.6,29.58,North,9,7.0,8.0,54,0.00,CLR,CLR,0.00,WeatherDisplay:10.34,2013-02-23 19:16:00,
2013-02-23 12:21:00,33.8,18.5,29.58,NE,34,8.0,8.0,53,0.00,SCT,SCT,0.00,WeatherDisplay:10.34,2013-02-23 19:21:00,
2013-02-23 12:26:00,33.5,18.2,29.58,North,360,9.0,10.0,53,0.00,SCT,SCT,0.00,WeatherDisplay:10.34,2013-02-23 19:26:00,
2013-02-23 12:31:00,33.2,18.3,29.58,NNW,342,8.0,8.0,54,0.00,SCT,SCT,0.00,WeatherDisplay:10.34,2013-02-23 19:31:00,
2013-02-23 12:36:00,32.8,18.0,29.58,NNW,338,9.0,10.0,54,0.00,BKN,BKN,0.00,WeatherDisplay:10.34,2013-02-23 19:36:00,
2013-02-23 12:41:00,32.6,18.2,29.58,NNW,331,7.0,8.0,55,0.00,BKN,BKN,0.00,WeatherDisplay:10.34,2013-02-23 19:41:00,
2013-02-23 12:46:00,32.5,18.5,29.58,NNW,330,4.0,5.0,56,0.00,OVC,OVC,0.00,WeatherDisplay:10.34,2013-02-23 19:46:00,
2013-02-23 12:51:00,32.5,18.5,29.58,North,349,7.0,9.0,56,0.00,OVC,OVC,0.00,WeatherDisplay:10.34,2013-02-23 19:51:00,
2013-02-23 12:56:00,32.4,18.8,29.58,NNW,348,7.0,8.0,57,0.00,OVC,OVC,0.00,WeatherDisplay:10.34,2013-02-23 19:56:00,
2013-02-23 13:01:00,32.2,18.7,29.58,North,355,7.0,8.0,57,0.00,OVC,OVC,0.00,WeatherDisplay:10.34,2013-02-23 20:01:00,
2013-02-23 13:06:00,32.3,19.2,29.58,North,355,7.0,7.0,58,0.00,OVC,OVC,0.00,WeatherDisplay:10.34,2013-02-23 20:06:00,
2013-02-23 13:11:00,32.4,19.7,29.57,NNE,28,3.0,3.0,59,0.00,OVC,OVC,0.00,WeatherDisplay:10.34,2013-02-23 20:11:00,
2013-02-23 13:16:00,32.5,19.7,29.57,North,355,4.0,5.0,59,0.00,BKN,BKN,0.00,WeatherDisplay:10.34,2013-02-23 20:16:00,
2013-02-23 13:21:00,32.7,20.3,29.58,North,349,6.0,7.0,60,0.00,BKN,BKN,0.00,WeatherDisplay:10.34,2013-02-23 20:21:00,
2013-02-23 13:26:00,32.7,20.3,29.58,NNW,338,7.0,8.0,60,0.00,BKN,BKN,0.00,WeatherDisplay:10.34,2013-02-23 20:26:00,
2013-02-23 13:31:00,32.7,20.3,29.58,North,5,6.0,8.0,60,0.00,BKN,BKN,0.00,WeatherDisplay:10.34,2013-02-23 20:31:00,
2013-02-23 13:36:00,32.8,20.4,29.58,North,355,4.0,4.0,60,0.00,BKN,BKN,0.00,WeatherDisplay:10.34,2013-02-23 20:36:00,
2013-02-23 13:41:00,32.9,20.9,29.58,ENE,60,3.0,3.0,61,0.00,OVC,OVC,0.00,WeatherDisplay:10.34,2013-02-23 20:41:00,
2013-02-23 13:46:00,33.0,20.2,29.58,NNE,18,7.0,7.0,59,0.00,OVC,OVC,0.00,WeatherDisplay:10.34,2013-02-23 20:46:00,
2013-02-23 13:51:00,32.9,20.1,29.58,North,360,6.0,7.0,59,0.00,OVC,OVC,0.00,WeatherDisplay:10.34,2013-02-23 20:51:00,
2013-02-23 13:56:00,32.6,19.8,29.58,North,5,6.0,8.0,59,0.00,OVC,OVC,0.00,WeatherDisplay:10.34,2013-02-23 20:56:00,
2013-02-23 14:01:00,32.3,20.0,29.58,North,350,3.0,3.0,60,0.00,OVC,OVC,0.00,WeatherDisplay:10.34,2013-02-23 21:01:00,
2013-02-23 14:06:00,31.8,19.9,29.58,North,355,8.0,8.0,61,0.00,OVC,OVC,0.00,WeatherDisplay:10.34,2013-02-23 21:06:00,
2013-02-23 14:11:00,31.5,20.0,29.58,NNE,17,8.0,8.0,62,0.00,OVC,OVC,0.00,WeatherDisplay:10.34,2013-02-23 21:11:00,
2013-02-23 14:16:00,31.2,20.8,29.58,NNW,340,11.0,12.0,65,0.00,OVC,OVC,0.00,WeatherDisplay:10.34,2013-02-23 21:16:00,
2013-02-23 14:21:00,31.1,21.1,29.58,North,355,11.0,11.0,66,0.00,OVC,OVC,0.00,WeatherDisplay:10.34,2013-02-23 21:21:00,
2013-02-23 14:26:00,31.0,21.3,29.58,North,360,10.0,10.0,67,0.00,OVC,OVC,0.00,WeatherDisplay:10.34,2013-02-23 21:26:00,
2013-02-23 14:31:00,30.8,21.5,29.60,NNW,348,11.0,12.0,68,0.00,OVC,OVC,0.00,WeatherDisplay:10.34,2013-02-23 21:31:00,
2013-02-23 14:36:00,30.4,21.8,29.60,NNW,346,11.0,11.0,70,0.00,OVC,OVC,0.00,WeatherDisplay:10.34,2013-02-23 21:36:00,
2013-02-23 14:41:00,30.2,22.3,29.60,NNW,346,9.0,10.0,72,0.00,OVC,OVC,0.00,WeatherDisplay:10.34,2013-02-23 21:41:00,
2013-02-23 14:46:00,30.0,22.7,29.60,NNW,344,10.0,10.0,74,0.00,OVC,OVC,0.00,WeatherDisplay:10.34,2013-02-23 21:46:00,
2013-02-23 14:51:00,30.0,23.0,29.60,NNW,334,7.0,8.0,75,0.00,OVC,OVC,0.00,WeatherDisplay:10.34,2013-02-23 21:51:00,
2013-02-23 14:57:00,30.1,23.4,29.60,NW,315,8.0,10.0,76,0.00,OVC,OVC,0.00,WeatherDisplay:10.34,2013-02-23 21:57:00,
2013-02-23 15:02:00,30.1,23.4,29.60,NNW,342,9.0,9.0,76,0.00,BKN,BKN,0.00,WeatherDisplay:10.34,2013-02-23 22:02:00,
2013-02-23 15:07:00,30.3,23.6,29.60,North,355,8.0,9.0,76,0.00,BKN,BKN,0.00,WeatherDisplay:10.34,2013-02-23 22:07:00,
2013-02-23 15:12:00,30.5,23.2,29.60,NNW,330,11.0,12.0,74,0.00,BKN,BKN,0.00,WeatherDisplay:10.34,2013-02-23 22:12:00,
2013-02-23 15:17:00,30.6,23.3,29.60,NNW,334,7.0,8.0,74,0.00,BKN,BKN,0.00,WeatherDisplay:10.34,2013-02-23 22:17:00,
2013-02-23 15:22:00,30.8,23.2,29.60,North,355,5.0,7.0,73,0.00,BKN,BKN,0.00,WeatherDisplay:10.34,2013-02-23 22:22:00,
2013-02-23 15:27:00,31.0,23.7,29.60,ENE,60,0.0,1.0,74,0.00,BKN,BKN,0.00,WeatherDisplay:10.34,2013-02-23 22:27:00,
2013-02-23 15:32:00,31.2,23.5,29.61,NE,50,0.0,0.0,73,0.00,BKN,BKN,0.00,WeatherDisplay:10.34,2013-02-23 22:32:00,
2013-02-23 15:37:00,31.3,23.6,29.61,NE,50,0.0,0.0,73,0.00,BKN,BKN,0.00,WeatherDisplay:10.34,2013-02-23 22:37:00,
2013-02-23 15:42:00,31.5,23.5,29.61,NE,49,0.0,0.0,72,0.00,BKN,BKN,0.00,WeatherDisplay:10.34,2013-02-23 22:42:00,
2013-02-23 15:47:00,31.7,23.7,29.61,West,263,0.0,1.0,72,0.00,BKN,BKN,0.00,WeatherDisplay:10.34,2013-02-23 22:47:00,
2013-02-23 15:52:00,31.9,23.6,29.62,West,263,1.0,2.0,71,0.00,BKN,BKN,0.00,WeatherDisplay:10.34,2013-02-23 22:52:00,
2013-02-23 15:57:00,32.1,23.8,29.62,West,263,1.0,2.0,71,0.00,BKN,BKN,0.00,WeatherDisplay:10.34,2013-02-23 22:57:00,
2013-02-23 16:02:00,32.3,23.9,29.62,NW,310,3.0,3.0,71,0.00,SCT,SCT,0.00,WeatherDisplay:10.34,2013-02-23 23:02:00,
2013-02-23 16:07:00,32.4,24.0,29.62,NW,314,0.0,1.0,71,0.00,SCT,SCT,0.00,WeatherDisplay:10.34,2013-02-23 23:07:00,
2013-02-23 16:12:00,32.5,24.5,29.62,NW,314,0.0,1.0,72,0.00,SCT,SCT,0.00,WeatherDisplay:10.34,2013-02-23 23:12:00,
2013-02-23 16:17:00,32.5,24.5,29.62,West,281,1.0,1.0,72,0.00,SCT,SCT,0.00,WeatherDisplay:10.34,2013-02-23 23:17:00,
2013-02-23 16:22:00,32.5,24.8,29.63,WNW,284,5.0,5.0,73,0.00,SCT,SCT,0.00,WeatherDisplay:10.34,2013-02-23 23:22:00,
2013-02-23 16:27:00,32.5,24.8,29.63,WNW,282,6.0,8.0,73,0.00,SCT,SCT,0.00,WeatherDisplay:10.34,2013-02-23 23:27:00,
2013-02-23 16:32:00,32.3,24.9,29.63,NW,318,6.0,9.0,74,0.00,SCT,SCT,0.00,WeatherDisplay:10.34,2013-02-23 23:32:00,
2013-02-23 16:38:00,32.2,25.2,29.63,NNW,338,6.0,14.0,75,0.00,SCT,SCT,0.00,WeatherDisplay:10.34,2013-02-23 23:38:00,
2013-02-23 16:43:00,32.1,25.4,29.64,NW,315,8.0,10.0,76,0.00,SCT,SCT,0.00,WeatherDisplay:10.34,2013-02-23 23:43:00,
2013-02-23 16:48:00,32.1,24.7,29.64,WNW,302,12.0,12.0,74,0.00,SCT,SCT,0.00,WeatherDisplay:10.34,2013-02-23 23:48:00,
2013-02-23 16:53:00,31.9,23.9,29.65,NNW,331,12.0,16.0,72,0.00,SCT,SCT,0.00,WeatherDisplay:10.34,2013-02-23 23:53:00,
2013-02-23 16:58:00,31.6,23.9,29.65,WNW,284,7.0,12.0,73,0.00,SCT,SCT,0.00,WeatherDisplay:10.34,2013-02-23 23:58:00,
2013-02-23 17:03:00,31.2,23.5,29.65,WNW,300,11.0,13.0,73,0.00,BKN,BKN,0.00,WeatherDisplay:10.34,2013-02-24 00:03:00,
2013-02-23 17:08:00,30.7,23.1,29.66,NW,321,15.0,16.0,73,0.00,BKN,BKN,0.00,WeatherDisplay:10.34,2013-02-24 00:08:00,
2013-02-23 17:13:00,30.3,23.0,29.66,NW,318,9.0,10.0,74,0.00,BKN,BKN,0.00,WeatherDisplay:10.34,2013-02-24 00:13:00,
2013-02-23 17:18:00,30.3,22.4,29.66,North,9,13.0,16.0,72,0.00,BKN,BKN,0.00,WeatherDisplay:10.34,2013-02-24 00:18:00,
2013-02-23 17:23:00,30.6,21.3,29.66,NW,317,16.0,16.0,68,0.00,BKN,BKN,0.00,WeatherDisplay:10.34,2013-02-24 00:23:00,
2013-02-23 17:28:00,30.9,21.2,29.66,North,350,19.0,20.0,67,0.00,BKN,BKN,0.00,WeatherDisplay:10.34,2013-02-24 00:28:00,
2013-02-23 17:33:00,31.1,21.4,29.66,NNW,329,14.0,16.0,67,0.00,OVC,OVC,0.00,WeatherDisplay:10.34,2013-02-24 00:33:00,
2013-02-23 17:38:00,31.2,21.2,29.66,NNW,342,16.0,20.0,66,0.00,BKN,BKN,0.00,WeatherDisplay:10.34,2013-02-24 00:38:00,
2013-02-23 17:43:00,31.3,19.8,29.66,NNW,331,18.0,21.0,62,0.00,OVC,OVC,0.00,WeatherDisplay:10.34,2013-02-24 00:43:00,
2013-02-23 17:48:00,31.4,18.7,29.66,NNW,346,10.0,14.0,59,0.00,OVC,OVC,0.00,WeatherDisplay:10.34,2013-02-24 00:48:00,
2013-02-23 17:53:00,31.5,18.0,29.66,North,9,10.0,14.0,57,0.00,OVC,OVC,0.00,WeatherDisplay:10.34,2013-02-24 00:53:00,
2013-02-23 17:58:00,31.5,17.6,29.66,NNW,333,17.0,25.0,56,0.00,OVC,OVC,0.00,WeatherDisplay:10.34,2013-02-24 00:58:00,
2013-02-23 18:03:00,31.5,17.2,29.67,WNW,294,15.0,22.0,55,0.00,CLR,CLR,0.00,WeatherDisplay:10.34,2013-02-24 01:03:00,
2013-02-23 18:08:00,31.4,17.5,29.67,WNW,291,15.0,16.0,56,0.00,CLR,CLR,0.00,WeatherDisplay:10.34,2013-02-24 01:08:00,
2013-02-23 18:13:00,31.4,17.5,29.67,WNW,296,11.0,15.0,56,0.00,CLR,CLR,0.00,WeatherDisplay:10.34,2013-02-24 01:13:00,
2013-02-23 18:18:00,31.3,17.4,29.67,NW,306,16.0,21.0,56,0.00,CLR,CLR,0.00,WeatherDisplay:10.34,2013-02-24 01:18:00,
2013-02-23 18:23:00,31.2,17.7,29.68,West,265,18.0,24.0,57,0.00,CLR,CLR,0.00,WeatherDisplay:10.34,2013-02-24 01:23:00,
2013-02-23 18:28:00,31.0,18.7,29.68,WSW,256,22.0,28.0,60,0.00,CLR,CLR,0.00,WeatherDisplay:10.34,2013-02-24 01:28:00,
2013-02-23 18:33:00,30.8,18.9,29.68,WNW,297,14.0,22.0,61,0.00,CLR,CLR,0.00,WeatherDisplay:10.34,2013-02-24 01:33:00,
2013-02-23 18:38:00,30.6,19.1,29.68,NNW,329,13.0,21.0,62,0.00,CLR,CLR,0.00,WeatherDisplay:10.34,2013-02-24 01:38:00,
2013-02-23 18:43:00,30.4,19.3,29.70,NW,309,20.0,23.0,63,0.00,CLR,CLR,0.00,WeatherDisplay:10.34,2013-02-24 01:43:00,
2013-02-23 18:48:00,30.1,19.4,29.70,NNW,327,20.0,23.0,64,0.00,CLR,CLR,0.00,WeatherDisplay:10.34,2013-02-24 01:48:00,
2013-02-23 18:53:00,29.8,19.8,29.71,NW,324,16.0,21.0,66,0.00,CLR,CLR,0.00,WeatherDisplay:10.34,2013-02-24 01:53:00,
2013-02-23 18:58:00,29.7,19.0,29.71,North,355,20.0,20.0,64,0.00,CLR,CLR,0.00,WeatherDisplay:10.34,2013-02-24 01:58:00,
2013-02-23 19:03:00,29.7,18.6,29.71,NW,325,18.0,20.0,63,0.00,CLR,CLR,0.00,WeatherDisplay:10.34,2013-02-24 02:03:00,
2013-02-23 19:08:00,30.0,18.2,29.71,North,355,15.0,17.0,61,0.00,CLR,CLR,0.00,WeatherDisplay:10.34,2013-02-24 02:08:00,
2013-02-23 19:13:00,30.2,17.6,29.71,NW,308,19.0,21.0,59,0.00,CLR,CLR,0.00,WeatherDisplay:10.34,2013-02-24 02:13:00,
2013-02-23 19:18:00,30.2,18.4,29.71,NNW,331,15.0,25.0,61,0.00,CLR,CLR,0.00,WeatherDisplay:10.34,2013-02-24 02:18:00,
2013-02-23 19:23:00,30.1,18.3,29.72,North,9,22.0,23.0,61,0.00,CLR,CLR,0.00,WeatherDisplay:10.34,2013-02-24 02:23:00,
2013-02-23 19:28:00,30.1,18.3,29.72,West,263,23.0,26.0,61,0.00,CLR,CLR,0.00,WeatherDisplay:10.34,2013-02-24 02:28:00,
2013-02-23 19:33:00,30.1,17.9,29.72,North,355,14.0,20.0,60,0.00,CLR,CLR,0.00,WeatherDisplay:10.34,2013-02-24 02:33:00,
2013-02-23 19:38:00,30.4,17.0,29.72,NNW,333,14.0,21.0,57,0.00,CLR,CLR,0.00,WeatherDisplay:10.34,2013-02-24 02:38:00,
2013-02-23 19:43:00,30.6,16.7,29.73,NW,315,14.0,20.0,56,0.00,CLR,CLR,0.00,WeatherDisplay:10.34,2013-02-24 02:43:00,
2013-02-23 19:48:00,30.7,16.4,29.73,West,271,15.0,17.0,55,0.00,CLR,CLR,0.00,WeatherDisplay:10.34,2013-02-24 02:48:00,
2013-02-23 19:53:00,30.9,15.8,29.74,North,9,18.0,22.0,53,0.00,CLR,CLR,0.00,WeatherDisplay:10.34,2013-02-24 02:53:00,
2013-02-23 19:58:00,31.0,15.0,29.74,North,355,15.0,22.0,51,0.00,CLR,CLR,0.00,WeatherDisplay:10.34,2013-02-24 02:58:00,
2013-02-23 20:03:00,31.1,15.1,29.74,WNW,290,18.0,24.0,51,0.00,CLR,CLR,0.00,WeatherDisplay:10.34,2013-02-24 03:03:00,
2013-02-23 20:08:00,31.1,15.1,29.74,NW,325,15.0,28.0,51,0.00,CLR,CLR,0.00,WeatherDisplay:10.34,2013-02-24 03:08:00,
2013-02-23 20:13:00,31.0,15.0,29.74,NW,313,16.0,21.0,51,0.00,CLR,CLR,0.00,WeatherDisplay:10.34,2013-02-24 03:13:00,
2013-02-23 20:18:00,31.0,15.0,29.74,North,355,14.0,15.0,51,0.00,CLR,CLR,0.00,WeatherDisplay:10.34,2013-02-24 03:18:00,
2013-02-23 20:23:00,30.9,14.9,29.75,NW,317,14.0,16.0,51,0.00,CLR,CLR,0.00,WeatherDisplay:10.34,2013-02-24 03:23:00,
2013-02-23 20:28:00,30.7,15.1,29.75,North,349,18.0,23.0,52,0.00,CLR,CLR,0.00,WeatherDisplay:10.34,2013-02-24 03:28:00,
2013-02-23 20:33:00,30.7,15.1,29.76,NNW,344,12.0,14.0,52,0.00,CLR,CLR,0.00,WeatherDisplay:10.34,2013-02-24 03:33:00,
2013-02-23 20:38:00,30.6,15.0,29.76,NW,312,16.0,16.0,52,0.00,CLR,CLR,0.00,WeatherDisplay:10.34,2013-02-24 03:38:00,
2013-02-23 20:43:00,30.6,15.0,29.76,NW,325,17.0,20.0,52,0.00,CLR,CLR,0.00,WeatherDisplay:10.34,2013-02-24 03:43:00,
2013-02-23 20:48:00,30.5,14.9,29.77,NNW,340,15.0,20.0,52,0.00,CLR,CLR,0.00,WeatherDisplay:10.34,2013-02-24 03:48:00,
2013-02-23 20:53:00,30.5,14.9,29.77,WNW,288,16.0,25.0,52,0.00,CLR,CLR,0.00,WeatherDisplay:10.34,2013-02-24 03:53:00,
2013-02-23 20:58:00,30.5,14.9,29.77,NW,323,13.0,17.0,52,0.00,CLR,CLR,0.00,WeatherDisplay:10.34,2013-02-24 03:58:00,
2013-02-23 21:03:00,30.4,15.3,29.77,NW,304,7.0,14.0,53,0.00,CLR,CLR,0.00,WeatherDisplay:10.34,2013-02-24 04:03:00,
2013-02-23 21:08:00,30.3,15.2,29.77,NW,323,14.0,16.0,53,0.00,CLR,CLR,0.00,WeatherDisplay:10.34,2013-02-24 04:08:00,
2013-02-23 21:13:00,30.2,15.1,29.78,NNW,333,16.0,21.0,53,0.00,CLR,CLR,0.00,WeatherDisplay:10.34,2013-02-24 04:13:00,
2013-02-23 21:18:00,30.2,15.5,29.79,NNW,336,10.0,15.0,54,0.00,CLR,CLR,0.00,WeatherDisplay:10.34,2013-02-24 04:18:00,
2013-02-23 21:23:00,30.2,15.5,29.79,NNW,327,12.0,17.0,54,0.00,CLR,CLR,0.00,WeatherDisplay:10.34,2013-02-24 04:23:00,
2013-02-23 21:28:00,30.2,15.5,29.79,NNW,333,9.0,12.0,54,0.00,CLR,CLR,0.00,WeatherDisplay:10.34,2013-02-24 04:28:00,
2013-02-23 21:33:00,30.1,15.4,29.79,NW,323,11.0,13.0,54,0.00,CLR,CLR,0.00,WeatherDisplay:10.34,2013-02-24 04:33:00,
2013-02-23 21:38:00,30.1,15.4,29.79,WNW,298,10.0,14.0,54,0.00,CLR,CLR,0.00,WeatherDisplay:10.34,2013-02-24 04:38:00,
2013-02-23 21:43:00,30.1,15.4,29.80,NNW,344,10.0,13.0,54,0.00,CLR,CLR,0.00,WeatherDisplay:10.34,2013-02-24 04:43:00,
2013-02-23 21:48:00,30.1,15.4,29.80,WNW,292,11.0,15.0,54,0.00,CLR,CLR,0.00,WeatherDisplay:10.34,2013-02-24 04:48:00,
2013-02-23 21:53:00,29.9,15.3,29.80,WNW,290,8.0,12.0,54,0.00,CLR,CLR,0.00,WeatherDisplay:10.34,2013-02-24 04:53:00,
2013-02-23 21:58:00,29.8,15.6,29.80,NW,315,8.0,13.0,55,0.00,CLR,CLR,0.00,WeatherDisplay:10.34,2013-02-24 04:58:00,
2013-02-23 22:00:00,29.8,15.6,29.80,NW,315,7.0,12.0,55,0.00,CLR,CLR,0.00,WeatherDisplay:10.34,2013-02-24 05:00:00,
2013-02-23 22:01:00,29.7,15.5,29.80,NNW,341,8.0,10.0,55,0.00,CLR,CLR,0.00,WeatherDisplay:10.34,2013-02-24 05:01:00,
2013-02-23 22:06:00,29.6,15.4,29.80,NW,318,8.0,9.0,55,0.00,CLR,CLR,0.00,WeatherDisplay:10.34,2013-02-24 05:06:00,
2013-02-23 22:11:00,29.5,15.3,29.81,NW,306,7.0,8.0,55,0.00,CLR,CLR,0.00,WeatherDisplay:10.34,2013-02-24 05:11:00,
2013-02-23 22:16:00,29.4,15.2,29.81,North,350,9.0,10.0,55,0.00,CLR,CLR,0.00,WeatherDisplay:10.34,2013-02-24 05:16:00,
2013-02-23 22:21:00,29.3,15.1,29.81,NW,321,7.0,8.0,55,0.00,CLR,CLR,0.00,WeatherDisplay:10.34,2013-02-24 05:21:00,
2013-02-23 22:26:00,29.3,15.1,29.81,NW,323,7.0,9.0,55,0.00,CLR,CLR,0.00,WeatherDisplay:10.34,2013-02-24 05:26:00,
2013-02-23 22:31:00,29.3,15.1,29.81,NW,317,9.0,10.0,55,0.00,CLR,CLR,0.00,WeatherDisplay:10.34,2013-02-24 05:31:00,
2013-02-23 22:36:00,29.4,15.2,29.81,NW,319,12.0,12.0,55,0.00,CLR,CLR,0.00,WeatherDisplay:10.34,2013-02-24 05:36:00,
2013-02-23 22:41:00,29.4,14.8,29.82,WNW,292,8.0,10.0,54,0.00,CLR,CLR,0.00,WeatherDisplay:10.34,2013-02-24 05:41:00,
2013-02-23 22:46:00,29.3,15.1,29.82,North,349,9.0,9.0,55,0.00,CLR,CLR,0.00,WeatherDisplay:10.34,2013-02-24 05:46:00,
2013-02-23 22:51:00,29.0,15.2,29.82,North,350,7.0,9.0,56,0.00,CLR,CLR,0.00,WeatherDisplay:10.34,2013-02-24 05:51:00,
2013-02-23 22:56:00,28.9,14.7,29.82,NNW,329,9.0,10.0,55,0.00,CLR,CLR,0.00,WeatherDisplay:10.34,2013-02-24 05:56:00,
2013-02-23 23:01:00,29.0,14.8,29.82,NNW,338,8.0,12.0,55,0.00,CLR,CLR,0.00,WeatherDisplay:10.34,2013-02-24 06:01:00,
2013-02-23 23:06:00,28.9,14.7,29.82,NNW,338,4.0,5.0,55,0.00,CLR,CLR,0.00,WeatherDisplay:10.34,2013-02-24 06:06:00,
2013-02-23 23:11:00,28.8,15.1,29.83,NNW,333,4.0,5.0,56,0.00,CLR,CLR,0.00,WeatherDisplay:10.34,2013-02-24 06:11:00,
2013-02-23 23:16:00,28.6,14.9,29.83,NNW,340,6.0,6.0,56,0.00,CLR,CLR,0.00,WeatherDisplay:10.34,2013-02-24 06:16:00,
2013-02-23 23:21:00,28.5,14.8,29.83,North,360,9.0,12.0,56,0.00,CLR,CLR,0.00,WeatherDisplay:10.34,2013-02-24 06:21:00,
2013-02-23 23:26:00,28.5,14.8,29.83,NNW,346,11.0,14.0,56,0.00,CLR,CLR,0.00,WeatherDisplay:10.34,2013-02-24 06:26:00,
2013-02-23 23:31:00,28.4,15.1,29.83,NW,324,10.0,13.0,57,0.00,CLR,CLR,0.00,WeatherDisplay:10.34,2013-02-24 06:31:00,
2013-02-23 23:37:00,28.2,14.9,29.83,NW,323,10.0,10.0,57,0.00,CLR,CLR,0.00,WeatherDisplay:10.34,2013-02-24 06:37:00,
2013-02-23 23:42:00,28.3,15.0,29.84,NNW,344,7.0,9.0,57,0.00,CLR,CLR,0.00,WeatherDisplay:10.34,2013-02-24 06:42:00,
2013-02-23 23:47:00,28.3,15.0,29.84,NW,319,12.0,14.0,57,0.00,CLR,CLR,0.00,WeatherDisplay:10.34,2013-02-24 06:47:00,
2013-02-23 23:52:00,28.3,15.0,29.84,NNW,333,10.0,14.0,57,0.00,CLR,CLR,0.00,WeatherDisplay:10.34,2013-02-24 06:52:00,
2013-02-23 23:57:00,28.2,14.9,29.84,NNW,348,9.0,13.0,57,0.00,CLR,CLR,0.00,WeatherDisplay:10.34,2013-02-24 06:57:00,